Ivesdale, IL (61851)

11:26 PM CST on February 19, 2017 (GMT -0600)
Jones Family | | Change Station
Active Advisory: Dense Fog Advisory

Elev 745 ft 40.00 °N, 88.58 °W | Updated 36 seconds ago

Fog
Fog
46.0 °F
Feels Like 44 °F
N
3.8
Wind Variable Wind from SE
Gusts 5.4 mph

Today
High -- | Low -- °F
--% Chance of Precip.
Yesterday
High -- | Low -- °F
Precip. -- in
Pressure 30.11 in
Visibility 1.2 miles
Clouds Few 300 ft
Windchill 44 °F
Dew Point 46 °F
Humidity 99%
Rainfall 0.00 in
Snow Depth Not available.
6:40 AM 5:34 PM
Last Quarter, 37% visible
SPECI KCMI 200522Z AUTO 13006KT 1 1/4SM R32R/6000VP6000FT BR FEW003 07/06 A3011 RMK AO2 T00670056
Pressure 30.11 in
Visibility 1.2 miles
Clouds Few 300 ft
Windchill 44 °F
Dew Point 46 °F
Humidity 99%
Rainfall 0.00 in
Snow Depth Not available.
6:40 AM 5:34 PM
Last Quarter, 37% visible
SPECI KCMI 200522Z AUTO 13006KT 1 1/4SM R32R/6000VP6000FT BR FEW003 07/06 A3011 RMK AO2 T00670056

Get Your Daily Forecast Email!

Thanks for signing up!

Be on the lookout for a verification email in your inbox.

You'll start receiving the daily forecast at 8 AM.

×

10-Day Weather Forecast

Almanac

Astronomy

Feb. 19, 2017 Rise Set
Actual Time
Civil Twilight
Nautical Twilight
Astronomical Twilight
Moon
Length of Visible Light
Length of Day
Tomorrow will be .
, % of the Moon is Illuminated

Today's Extremes

State Highs State Lows

Community

WunderPhotos

Upload Photos

1,962,540 photos uploaded!

WunderBlog® & News

Nearby

Air Quality

  Air Quality AQ Index Pollutant
Not available.

Snow Depth

Station Depth Elevation

Earthquake Activity

City Distance Mag. Time & Date
Minimum magnitude displayed is 2.5.

Coastal Water Temperatures

Place Temperature

Stations

Nearby Weather Stations

Station Location Temp. Windchill Dew Point Humidity Wind Precip. Elev Updated Type
                   

Watches & Warnings

Dense Fog Advisory
Issued: 10:08 PM CST Feb. 19, 2017 – National Weather Service

... Dense fog advisory in effect until 10 am CST Monday...

The National Weather Service in Lincoln has issued a dense fog
advisory... which is in effect until 10 am CST Monday.

* Visibility... one quarter mile or less at times.

* Impacts... areas of low visibility and rapid changes in
visibility will cause hazardous driving conditions.

Precautionary/preparedness actions...

A dense fog advisory means visibilities will frequently be
reduced to less than one quarter mile. If driving... slow down...
use your headlights... and leave plenty of distance ahead of you.



Smith